sensor_id;sensor_type;location;lat;lon;timestamp;P1;durP1;ratioP1;P2;durP2;ratioP2
16387;SDS011;8303;53.446;9.988;2022-11-15T05:49:27;54.47;;;27.77;;
16387;SDS011;8303;53.446;9.988;2022-11-15T05:51:57;57.07;;;28.50;;
16387;SDS011;8303;53.446;9.988;2022-11-15T05:54:25;52.63;;;29.13;;
16387;SDS011;8303;53.446;9.988;2022-11-15T05:56:52;53.13;;;27.93;;
16387;SDS011;8303;53.446;9.988;2022-11-15T05:59:21;53.33;;;27.20;;
16387;SDS011;8303;53.446;9.988;2022-11-15T06:01:49;53.13;;;28.07;;
16387;SDS011;8303;53.446;9.988;2022-11-15T06:04:23;56.83;;;29.00;;
16387;SDS011;8303;53.446;9.988;2022-11-15T06:06:52;49.37;;;28.57;;
16387;SDS011;8303;53.446;9.988;2022-11-15T06:09:19;53.23;;;27.93;;
16387;SDS011;8303;53.446;9.988;2022-11-15T06:11:46;61.33;;;29.97;;
16387;SDS011;8303;53.446;9.988;2022-11-15T06:14:14;53.20;;;28.20;;
16387;SDS011;8303;53.446;9.988;2022-11-15T06:16:41;61.30;;;30.23;;
16387;SDS011;8303;53.446;9.988;2022-11-15T06:19:08;53.90;;;30.23;;
16387;SDS011;8303;53.446;9.988;2022-11-15T06:21:36;53.30;;;28.00;;
16387;SDS011;8303;53.446;9.988;2022-11-15T06:24:04;54.53;;;28.87;;
16387;SDS011;8303;53.446;9.988;2022-11-15T06:26:32;50.40;;;27.50;;
16387;SDS011;8303;53.446;9.988;2022-11-15T06:28:59;52.20;;;27.83;;
16387;SDS011;8303;53.446;9.988;2022-11-15T06:31:28;53.57;;;27.00;;
16387;SDS011;8303;53.446;9.988;2022-11-15T06:33:59;50.57;;;26.33;;
16387;SDS011;8303;53.446;9.988;2022-11-15T06:36:37;58.57;;;31.30;;
16387;SDS011;8303;53.446;9.988;2022-11-15T06:39:04;48.93;;;27.53;;
16387;SDS011;8303;53.446;9.988;2022-11-15T06:41:34;54.40;;;28.00;;
16387;SDS011;8303;53.446;9.988;2022-11-15T06:44:02;47.30;;;27.43;;
16387;SDS011;8303;53.446;9.988;2022-11-15T06:46:29;43.93;;;26.13;;
16387;SDS011;8303;53.446;9.988;2022-11-15T06:48:56;49.80;;;27.47;;
16387;SDS011;8303;53.446;9.988;2022-11-15T06:51:23;44.83;;;25.67;;
16387;SDS011;8303;53.446;9.988;2022-11-15T06:53:52;53.63;;;26.87;;
16387;SDS011;8303;53.446;9.988;2022-11-15T06:56:19;48.83;;;25.67;;
16387;SDS011;8303;53.446;9.988;2022-11-15T06:58:46;51.43;;;26.57;;
16387;SDS011;8303;53.446;9.988;2022-11-15T07:01:13;56.60;;;26.83;;
16387;SDS011;8303;53.446;9.988;2022-11-15T07:03:41;51.93;;;26.77;;
16387;SDS011;8303;53.446;9.988;2022-11-15T07:06:08;49.33;;;27.03;;
16387;SDS011;8303;53.446;9.988;2022-11-15T07:08:36;47.63;;;26.63;;
16387;SDS011;8303;53.446;9.988;2022-11-15T07:11:06;48.13;;;26.33;;
16387;SDS011;8303;53.446;9.988;2022-11-15T07:13:34;44.93;;;25.97;;
16387;SDS011;8303;53.446;9.988;2022-11-15T07:16:02;48.57;;;27.50;;
16387;SDS011;8303;53.446;9.988;2022-11-15T07:18:30;46.87;;;25.10;;
16387;SDS011;8303;53.446;9.988;2022-11-15T07:21:00;44.50;;;24.67;;
16387;SDS011;8303;53.446;9.988;2022-11-15T07:23:28;46.10;;;24.63;;
16387;SDS011;8303;53.446;9.988;2022-11-15T07:25:56;48.37;;;26.23;;
16387;SDS011;8303;53.446;9.988;2022-11-15T07:28:25;52.20;;;26.90;;
16387;SDS011;8303;53.446;9.988;2022-11-15T07:30:53;47.17;;;25.30;;
16387;SDS011;8303;53.446;9.988;2022-11-15T07:33:20;47.57;;;24.43;;
16387;SDS011;8303;53.446;9.988;2022-11-15T07:35:47;52.83;;;26.80;;
16387;SDS011;8303;53.446;9.988;2022-11-15T07:38:15;49.40;;;25.87;;
16387;SDS011;8303;53.446;9.988;2022-11-15T07:40:44;49.10;;;24.50;;
16387;SDS011;8303;53.446;9.988;2022-11-15T07:43:13;48.23;;;26.13;;
16387;SDS011;8303;53.446;9.988;2022-11-15T07:45:45;48.50;;;25.77;;
16387;SDS011;8303;53.446;9.988;2022-11-15T07:48:14;44.20;;;24.43;;
16387;SDS011;8303;53.446;9.988;2022-11-15T07:50:44;50.87;;;26.67;;
16387;SDS011;8303;53.446;9.988;2022-11-15T07:53:11;52.20;;;25.67;;
16387;SDS011;8303;53.446;9.988;2022-11-15T07:55:39;48.93;;;25.00;;
16387;SDS011;8303;53.446;9.988;2022-11-15T07:58:09;46.83;;;25.40;;
16387;SDS011;8303;53.446;9.988;2022-11-15T08:00:39;49.10;;;26.60;;
16387;SDS011;8303;53.446;9.988;2022-11-15T08:03:08;48.93;;;25.90;;
16387;SDS011;8303;53.446;9.988;2022-11-15T08:05:37;46.27;;;27.27;;
16387;SDS011;8303;53.446;9.988;2022-11-15T08:08:06;49.03;;;26.20;;
16387;SDS011;8303;53.446;9.988;2022-11-15T08:10:37;43.73;;;24.77;;
16387;SDS011;8303;53.446;9.988;2022-11-15T08:13:05;43.83;;;26.27;;
16387;SDS011;8303;53.446;9.988;2022-11-15T08:15:39;40.03;;;23.53;;
16387;SDS011;8303;53.446;9.988;2022-11-15T08:18:09;44.10;;;25.43;;
16387;SDS011;8303;53.446;9.988;2022-11-15T08:20:38;48.47;;;25.17;;
16387;SDS011;8303;53.446;9.988;2022-11-15T08:23:05;44.10;;;24.63;;
16387;SDS011;8303;53.446;9.988;2022-11-15T08:25:33;46.70;;;24.80;;
16387;SDS011;8303;53.446;9.988;2022-11-15T08:28:02;47.17;;;24.57;;
16387;SDS011;8303;53.446;9.988;2022-11-15T08:30:34;41.53;;;23.70;;
16387;SDS011;8303;53.446;9.988;2022-11-15T08:33:03;47.63;;;25.80;;
16387;SDS011;8303;53.446;9.988;2022-11-15T08:35:31;44.77;;;25.17;;
16387;SDS011;8303;53.446;9.988;2022-11-15T08:37:59;49.00;;;24.67;;
16387;SDS011;8303;53.446;9.988;2022-11-15T08:40:28;42.70;;;23.60;;
16387;SDS011;8303;53.446;9.988;2022-11-15T08:42:56;44.77;;;23.60;;
16387;SDS011;8303;53.446;9.988;2022-11-15T08:45:23;38.77;;;23.97;;
16387;SDS011;8303;53.446;9.988;2022-11-15T08:47:51;39.53;;;23.10;;
16387;SDS011;8303;53.446;9.988;2022-11-15T08:50:18;39.87;;;23.87;;
16387;SDS011;8303;53.446;9.988;2022-11-15T08:52:51;43.97;;;24.20;;
16387;SDS011;8303;53.446;9.988;2022-11-15T08:55:18;45.97;;;24.60;;
16387;SDS011;8303;53.446;9.988;2022-11-15T08:57:47;41.77;;;24.57;;
16387;SDS011;8303;53.446;9.988;2022-11-15T09:00:16;38.73;;;23.00;;
16387;SDS011;8303;53.446;9.988;2022-11-15T09:02:45;44.50;;;24.40;;
16387;SDS011;8303;53.446;9.988;2022-11-15T09:05:12;40.40;;;23.30;;
16387;SDS011;8303;53.446;9.988;2022-11-15T09:07:44;36.27;;;22.47;;
16387;SDS011;8303;53.446;9.988;2022-11-15T09:10:13;37.77;;;22.10;;
16387;SDS011;8303;53.446;9.988;2022-11-15T09:12:41;42.30;;;21.67;;
16387;SDS011;8303;53.446;9.988;2022-11-15T09:15:14;41.20;;;21.33;;
16387;SDS011;8303;53.446;9.988;2022-11-15T09:17:42;36.20;;;21.40;;
16387;SDS011;8303;53.446;9.988;2022-11-15T09:20:09;35.83;;;22.10;;
16387;SDS011;8303;53.446;9.988;2022-11-15T09:22:39;36.63;;;21.53;;
16387;SDS011;8303;53.446;9.988;2022-11-15T09:25:07;33.77;;;22.30;;
16387;SDS011;8303;53.446;9.988;2022-11-15T09:27:38;35.43;;;20.97;;
16387;SDS011;8303;53.446;9.988;2022-11-15T09:30:07;35.37;;;20.80;;
16387;SDS011;8303;53.446;9.988;2022-11-15T09:32:35;33.57;;;20.27;;
16387;SDS011;8303;53.446;9.988;2022-11-15T09:35:03;32.50;;;20.30;;
16387;SDS011;8303;53.446;9.988;2022-11-15T09:37:31;39.27;;;21.20;;
16387;SDS011;8303;53.446;9.988;2022-11-15T09:39:58;30.60;;;20.07;;
16387;SDS011;8303;53.446;9.988;2022-11-15T09:42:30;34.10;;;20.37;;
16387;SDS011;8303;53.446;9.988;2022-11-15T09:45:16;29.57;;;19.80;;
16387;SDS011;8303;53.446;9.988;2022-11-15T09:48:03;35.30;;;20.50;;
16387;SDS011;8303;53.446;9.988;2022-11-15T09:50:44;29.03;;;18.43;;
16387;SDS011;8303;53.446;9.988;2022-11-15T09:53:27;31.73;;;19.23;;
16387;SDS011;8303;53.446;9.988;2022-11-15T09:56:01;29.47;;;19.10;;
16387;SDS011;8303;53.446;9.988;2022-11-15T09:58:33;26.77;;;17.87;;
16387;SDS011;8303;53.446;9.988;2022-11-15T10:01:07;34.33;;;19.10;;
16387;SDS011;8303;53.446;9.988;2022-11-15T10:03:39;30.47;;;18.63;;
16387;SDS011;8303;53.446;9.988;2022-11-15T10:06:08;29.63;;;19.07;;
16387;SDS011;8303;53.446;9.988;2022-11-15T10:11:34;30.23;;;19.10;;
16387;SDS011;8303;53.446;9.988;2022-11-15T10:14:08;28.37;;;19.07;;
16387;SDS011;8303;53.446;9.988;2022-11-15T10:16:52;27.70;;;17.40;;
16387;SDS011;8303;53.446;9.988;2022-11-15T10:19:43;29.37;;;17.80;;
16387;SDS011;8303;53.446;9.988;2022-11-15T10:22:30;142.63;;;70.10;;
16387;SDS011;8303;53.446;9.988;2022-11-15T10:25:13;24.50;;;17.23;;
16387;SDS011;8303;53.446;9.988;2022-11-15T10:27:50;29.10;;;16.97;;
16387;SDS011;8303;53.446;9.988;2022-11-15T10:30:21;24.73;;;16.37;;
16387;SDS011;8303;53.446;9.988;2022-11-15T10:32:50;26.43;;;17.10;;
16387;SDS011;8303;53.446;9.988;2022-11-15T10:35:27;22.37;;;15.60;;
16387;SDS011;8303;53.446;9.988;2022-11-15T10:38:04;25.97;;;17.03;;
16387;SDS011;8303;53.446;9.988;2022-11-15T10:40:32;25.23;;;16.17;;
16387;SDS011;8303;53.446;9.988;2022-11-15T10:43:04;22.67;;;15.40;;
16387;SDS011;8303;53.446;9.988;2022-11-15T10:45:43;25.53;;;16.77;;
16387;SDS011;8303;53.446;9.988;2022-11-15T10:48:24;22.50;;;15.37;;
16387;SDS011;8303;53.446;9.988;2022-11-15T10:50:52;21.47;;;14.73;;
16387;SDS011;8303;53.446;9.988;2022-11-15T10:53:26;21.43;;;14.80;;
16387;SDS011;8303;53.446;9.988;2022-11-15T10:55:57;21.30;;;14.87;;
16387;SDS011;8303;53.446;9.988;2022-11-15T10:58:32;21.73;;;14.30;;
16387;SDS011;8303;53.446;9.988;2022-11-15T11:01:09;21.57;;;14.63;;
16387;SDS011;8303;53.446;9.988;2022-11-15T11:03:39;19.73;;;13.37;;
16387;SDS011;8303;53.446;9.988;2022-11-15T11:06:08;20.47;;;12.47;;
16387;SDS011;8303;53.446;9.988;2022-11-15T11:08:37;19.00;;;12.47;;
16387;SDS011;8303;53.446;9.988;2022-11-15T11:11:08;20.57;;;12.97;;
16387;SDS011;8303;53.446;9.988;2022-11-15T11:13:35;18.37;;;12.20;;
16387;SDS011;8303;53.446;9.988;2022-11-15T11:16:14;17.20;;;12.20;;
16387;SDS011;8303;53.446;9.988;2022-11-15T11:19:02;16.63;;;11.90;;
16387;SDS011;8303;53.446;9.988;2022-11-15T11:21:37;19.13;;;11.90;;
16387;SDS011;8303;53.446;9.988;2022-11-15T11:24:12;18.53;;;12.07;;
16387;SDS011;8303;53.446;9.988;2022-11-15T11:26:46;16.40;;;12.30;;
16387;SDS011;8303;53.446;9.988;2022-11-15T11:29:27;21.77;;;13.37;;
16387;SDS011;8303;53.446;9.988;2022-11-15T11:32:09;20.77;;;13.20;;
16387;SDS011;8303;53.446;9.988;2022-11-15T11:34:58;22.73;;;14.10;;
16387;SDS011;8303;53.446;9.988;2022-11-15T11:37:33;21.37;;;14.10;;
16387;SDS011;8303;53.446;9.988;2022-11-15T11:40:11;20.90;;;13.67;;
16387;SDS011;8303;53.446;9.988;2022-11-15T11:42:50;19.43;;;12.93;;
16387;SDS011;8303;53.446;9.988;2022-11-15T11:45:26;21.47;;;13.40;;
16387;SDS011;8303;53.446;9.988;2022-11-15T11:48:14;21.37;;;14.03;;
16387;SDS011;8303;53.446;9.988;2022-11-15T11:50:47;21.40;;;13.73;;
16387;SDS011;8303;53.446;9.988;2022-11-15T11:53:17;18.60;;;13.37;;
16387;SDS011;8303;53.446;9.988;2022-11-15T11:55:55;20.60;;;14.87;;
16387;SDS011;8303;53.446;9.988;2022-11-15T11:58:38;23.73;;;14.50;;
16387;SDS011;8303;53.446;9.988;2022-11-15T12:01:09;19.97;;;14.23;;
16387;SDS011;8303;53.446;9.988;2022-11-15T12:03:44;21.80;;;13.60;;
16387;SDS011;8303;53.446;9.988;2022-11-15T12:06:16;23.57;;;14.23;;
16387;SDS011;8303;53.446;9.988;2022-11-15T12:08:50;22.83;;;14.43;;
16387;SDS011;8303;53.446;9.988;2022-11-15T12:11:23;20.50;;;14.37;;
16387;SDS011;8303;53.446;9.988;2022-11-15T12:13:58;19.00;;;13.47;;
16387;SDS011;8303;53.446;9.988;2022-11-15T12:16:28;22.00;;;14.43;;
16387;SDS011;8303;53.446;9.988;2022-11-15T12:18:58;18.73;;;13.20;;
16387;SDS011;8303;53.446;9.988;2022-11-15T12:21:29;20.50;;;13.57;;
16387;SDS011;8303;53.446;9.988;2022-11-15T12:24:02;20.40;;;14.20;;
16387;SDS011;8303;53.446;9.988;2022-11-15T12:26:34;21.00;;;14.03;;
16387;SDS011;8303;53.446;9.988;2022-11-15T12:29:09;19.63;;;13.67;;
16387;SDS011;8303;53.446;9.988;2022-11-15T12:31:41;17.67;;;13.13;;
16387;SDS011;8303;53.446;9.988;2022-11-15T12:37:17;19.37;;;13.27;;
16387;SDS011;8303;53.446;9.988;2022-11-15T12:40:36;20.53;;;14.03;;
16387;SDS011;8303;53.446;9.988;2022-11-15T12:43:07;17.63;;;12.70;;
16387;SDS011;8303;53.446;9.988;2022-11-15T12:46:10;18.67;;;13.63;;
16387;SDS011;8303;53.446;9.988;2022-11-15T12:48:53;17.80;;;13.20;;
16387;SDS011;8303;53.446;9.988;2022-11-15T12:57:50;20.27;;;13.40;;
16387;SDS011;8303;53.446;9.988;2022-11-15T13:03:17;21.13;;;12.50;;
16387;SDS011;8303;53.446;9.988;2022-11-15T13:06:05;19.53;;;13.67;;
16387;SDS011;8303;53.446;9.988;2022-11-15T13:08:39;19.50;;;12.90;;
16387;SDS011;8303;53.446;9.988;2022-11-15T13:17:30;22.10;;;13.70;;
16387;SDS011;8303;53.446;9.988;2022-11-15T13:22:49;21.07;;;14.30;;
16387;SDS011;8303;53.446;9.988;2022-11-15T13:25:16;19.90;;;14.53;;
16387;SDS011;8303;53.446;9.988;2022-11-15T13:27:48;23.33;;;14.40;;
16387;SDS011;8303;53.446;9.988;2022-11-15T13:30:19;22.00;;;13.93;;
16387;SDS011;8303;53.446;9.988;2022-11-15T13:32:49;20.93;;;14.70;;
16387;SDS011;8303;53.446;9.988;2022-11-15T13:35:20;23.37;;;14.57;;
16387;SDS011;8303;53.446;9.988;2022-11-15T13:37:49;24.90;;;14.57;;
16387;SDS011;8303;53.446;9.988;2022-11-15T13:40:21;20.10;;;13.23;;
16387;SDS011;8303;53.446;9.988;2022-11-15T13:42:52;20.87;;;14.83;;
16387;SDS011;8303;53.446;9.988;2022-11-15T13:45:20;19.47;;;14.17;;
16387;SDS011;8303;53.446;9.988;2022-11-15T13:47:55;20.33;;;13.60;;
16387;SDS011;8303;53.446;9.988;2022-11-15T13:50:25;20.00;;;13.03;;
16387;SDS011;8303;53.446;9.988;2022-11-15T13:52:56;22.50;;;14.20;;
16387;SDS011;8303;53.446;9.988;2022-11-15T13:55:26;20.53;;;13.87;;
16387;SDS011;8303;53.446;9.988;2022-11-15T13:57:55;23.60;;;14.23;;
16387;SDS011;8303;53.446;9.988;2022-11-15T14:00:28;19.90;;;13.03;;
16387;SDS011;8303;53.446;9.988;2022-11-15T14:03:21;17.57;;;12.40;;
16387;SDS011;8303;53.446;9.988;2022-11-15T14:06:01;20.60;;;13.03;;
16387;SDS011;8303;53.446;9.988;2022-11-15T14:08:31;18.50;;;12.60;;
16387;SDS011;8303;53.446;9.988;2022-11-15T14:11:05;21.13;;;12.70;;
16387;SDS011;8303;53.446;9.988;2022-11-15T14:13:34;18.63;;;12.03;;
16387;SDS011;8303;53.446;9.988;2022-11-15T14:16:12;16.03;;;11.57;;
16387;SDS011;8303;53.446;9.988;2022-11-15T14:18:42;18.83;;;12.57;;
16387;SDS011;8303;53.446;9.988;2022-11-15T14:21:12;18.37;;;12.77;;
16387;SDS011;8303;53.446;9.988;2022-11-15T14:23:39;18.30;;;12.83;;
16387;SDS011;8303;53.446;9.988;2022-11-15T14:26:10;16.13;;;12.20;;
16387;SDS011;8303;53.446;9.988;2022-11-15T14:28:51;15.97;;;12.50;;
16387;SDS011;8303;53.446;9.988;2022-11-15T14:31:18;16.80;;;12.87;;
16387;SDS011;8303;53.446;9.988;2022-11-15T14:33:48;18.83;;;12.40;;
16387;SDS011;8303;53.446;9.988;2022-11-15T14:36:16;17.83;;;12.43;;
16387;SDS011;8303;53.446;9.988;2022-11-15T14:38:44;18.90;;;12.50;;
16387;SDS011;8303;53.446;9.988;2022-11-15T14:41:17;19.20;;;13.37;;
16387;SDS011;8303;53.446;9.988;2022-11-15T14:43:46;21.90;;;12.43;;
16387;SDS011;8303;53.446;9.988;2022-11-15T14:46:13;15.07;;;12.30;;
16387;SDS011;8303;53.446;9.988;2022-11-15T14:48:40;17.93;;;12.43;;
16387;SDS011;8303;53.446;9.988;2022-11-15T14:51:13;20.00;;;12.57;;
16387;SDS011;8303;53.446;9.988;2022-11-15T14:53:42;17.50;;;12.47;;
16387;SDS011;8303;53.446;9.988;2022-11-15T14:56:10;16.80;;;12.03;;
16387;SDS011;8303;53.446;9.988;2022-11-15T14:58:38;17.07;;;12.13;;
16387;SDS011;8303;53.446;9.988;2022-11-15T15:01:09;17.10;;;11.83;;
16387;SDS011;8303;53.446;9.988;2022-11-15T15:03:39;16.77;;;11.90;;
16387;SDS011;8303;53.446;9.988;2022-11-15T15:06:06;20.63;;;13.03;;
16387;SDS011;8303;53.446;9.988;2022-11-15T15:08:35;23.00;;;11.73;;
16387;SDS011;8303;53.446;9.988;2022-11-15T15:11:03;21.57;;;13.23;;
16387;SDS011;8303;53.446;9.988;2022-11-15T15:13:36;18.63;;;12.60;;
16387;SDS011;8303;53.446;9.988;2022-11-15T15:16:03;18.87;;;13.13;;
16387;SDS011;8303;53.446;9.988;2022-11-15T15:18:30;18.43;;;13.10;;
16387;SDS011;8303;53.446;9.988;2022-11-15T15:20:58;18.53;;;12.50;;
16387;SDS011;8303;53.446;9.988;2022-11-15T15:23:31;17.33;;;12.63;;
16387;SDS011;8303;53.446;9.988;2022-11-15T15:26:02;21.93;;;14.33;;
16387;SDS011;8303;53.446;9.988;2022-11-15T15:28:29;20.57;;;13.70;;
16387;SDS011;8303;53.446;9.988;2022-11-15T15:30:56;22.60;;;13.20;;
16387;SDS011;8303;53.446;9.988;2022-11-15T15:33:23;19.93;;;12.80;;
16387;SDS011;8303;53.446;9.988;2022-11-15T15:35:50;19.37;;;13.57;;
16387;SDS011;8303;53.446;9.988;2022-11-15T15:38:17;17.33;;;12.97;;
16387;SDS011;8303;53.446;9.988;2022-11-15T15:40:44;23.00;;;14.50;;
16387;SDS011;8303;53.446;9.988;2022-11-15T15:43:13;24.10;;;15.67;;
16387;SDS011;8303;53.446;9.988;2022-11-15T15:45:40;20.93;;;13.73;;
16387;SDS011;8303;53.446;9.988;2022-11-15T15:48:09;23.80;;;14.53;;
16387;SDS011;8303;53.446;9.988;2022-11-15T15:50:38;26.50;;;14.97;;
16387;SDS011;8303;53.446;9.988;2022-11-15T15:53:08;21.87;;;14.73;;
16387;SDS011;8303;53.446;9.988;2022-11-15T15:55:36;21.43;;;14.57;;
16387;SDS011;8303;53.446;9.988;2022-11-15T15:58:03;23.97;;;15.17;;
16387;SDS011;8303;53.446;9.988;2022-11-15T16:00:33;25.10;;;15.67;;
16387;SDS011;8303;53.446;9.988;2022-11-15T16:02:59;23.40;;;15.00;;
16387;SDS011;8303;53.446;9.988;2022-11-15T16:05:26;23.97;;;15.80;;
16387;SDS011;8303;53.446;9.988;2022-11-15T16:07:53;23.70;;;15.33;;
16387;SDS011;8303;53.446;9.988;2022-11-15T16:10:21;24.90;;;15.53;;
16387;SDS011;8303;53.446;9.988;2022-11-15T16:12:51;25.70;;;15.77;;
16387;SDS011;8303;53.446;9.988;2022-11-15T16:15:19;22.97;;;15.33;;
16387;SDS011;8303;53.446;9.988;2022-11-15T16:17:49;25.70;;;15.67;;
16387;SDS011;8303;53.446;9.988;2022-11-15T16:23:04;23.83;;;15.53;;
16387;SDS011;8303;53.446;9.988;2022-11-15T16:25:33;21.77;;;15.40;;
16387;SDS011;8303;53.446;9.988;2022-11-15T16:28:04;25.63;;;15.37;;
16387;SDS011;8303;53.446;9.988;2022-11-15T16:30:31;23.97;;;15.37;;
16387;SDS011;8303;53.446;9.988;2022-11-15T16:32:59;23.93;;;15.47;;
16387;SDS011;8303;53.446;9.988;2022-11-15T16:35:26;21.60;;;15.43;;
16387;SDS011;8303;53.446;9.988;2022-11-15T16:37:53;28.20;;;15.50;;
16387;SDS011;8303;53.446;9.988;2022-11-15T16:40:25;22.83;;;15.20;;
16387;SDS011;8303;53.446;9.988;2022-11-15T16:42:54;25.87;;;15.97;;
16387;SDS011;8303;53.446;9.988;2022-11-15T16:45:22;25.10;;;16.00;;
16387;SDS011;8303;53.446;9.988;2022-11-15T16:47:49;23.13;;;14.67;;
16387;SDS011;8303;53.446;9.988;2022-11-15T16:50:21;22.40;;;15.07;;
16387;SDS011;8303;53.446;9.988;2022-11-15T16:52:52;23.17;;;15.70;;
16387;SDS011;8303;53.446;9.988;2022-11-15T16:55:20;23.80;;;16.07;;
16387;SDS011;8303;53.446;9.988;2022-11-15T16:57:49;28.47;;;16.87;;
16387;SDS011;8303;53.446;9.988;2022-11-15T17:00:16;24.37;;;16.20;;
16387;SDS011;8303;53.446;9.988;2022-11-15T17:02:45;27.13;;;16.43;;
16387;SDS011;8303;53.446;9.988;2022-11-15T17:05:13;26.57;;;16.13;;
16387;SDS011;8303;53.446;9.988;2022-11-15T17:07:42;24.07;;;15.67;;
16387;SDS011;8303;53.446;9.988;2022-11-15T17:10:13;25.67;;;16.00;;
16387;SDS011;8303;53.446;9.988;2022-11-15T17:12:40;20.40;;;14.73;;
16387;SDS011;8303;53.446;9.988;2022-11-15T17:15:08;24.40;;;15.73;;
16387;SDS011;8303;53.446;9.988;2022-11-15T17:17:37;21.70;;;15.40;;
16387;SDS011;8303;53.446;9.988;2022-11-15T17:20:05;23.40;;;15.37;;
16387;SDS011;8303;53.446;9.988;2022-11-15T17:22:34;23.70;;;16.37;;
16387;SDS011;8303;53.446;9.988;2022-11-15T17:25:02;24.23;;;16.17;;
16387;SDS011;8303;53.446;9.988;2022-11-15T17:27:30;19.83;;;14.73;;
16387;SDS011;8303;53.446;9.988;2022-11-15T17:29:57;22.27;;;15.30;;
16387;SDS011;8303;53.446;9.988;2022-11-15T17:32:24;23.97;;;15.17;;
16387;SDS011;8303;53.446;9.988;2022-11-15T17:34:50;25.70;;;16.23;;
16387;SDS011;8303;53.446;9.988;2022-11-15T17:37:17;24.80;;;16.30;;
16387;SDS011;8303;53.446;9.988;2022-11-15T17:39:44;24.30;;;15.43;;
16387;SDS011;8303;53.446;9.988;2022-11-15T17:42:13;22.57;;;15.07;;
16387;SDS011;8303;53.446;9.988;2022-11-15T17:44:39;22.77;;;14.93;;
16387;SDS011;8303;53.446;9.988;2022-11-15T17:47:06;24.63;;;15.93;;
16387;SDS011;8303;53.446;9.988;2022-11-15T17:49:33;22.70;;;16.20;;
16387;SDS011;8303;53.446;9.988;2022-11-15T17:52:03;25.27;;;15.03;;
16387;SDS011;8303;53.446;9.988;2022-11-15T17:54:30;26.33;;;16.30;;
16387;SDS011;8303;53.446;9.988;2022-11-15T17:56:57;26.70;;;17.20;;
16387;SDS011;8303;53.446;9.988;2022-11-15T17:59:26;21.80;;;15.80;;
16387;SDS011;8303;53.446;9.988;2022-11-15T18:01:52;22.47;;;16.40;;
16387;SDS011;8303;53.446;9.988;2022-11-15T18:04:19;25.57;;;16.80;;
16387;SDS011;8303;53.446;9.988;2022-11-15T18:06:52;25.47;;;17.30;;
16387;SDS011;8303;53.446;9.988;2022-11-15T18:09:19;26.47;;;17.10;;
16387;SDS011;8303;53.446;9.988;2022-11-15T18:11:47;24.90;;;16.17;;
16387;SDS011;8303;53.446;9.988;2022-11-15T18:14:16;26.17;;;18.03;;
16387;SDS011;8303;53.446;9.988;2022-11-15T18:16:45;24.10;;;17.13;;
16387;SDS011;8303;53.446;9.988;2022-11-15T18:19:12;25.53;;;16.90;;
16387;SDS011;8303;53.446;9.988;2022-11-15T18:21:39;23.03;;;16.00;;
16387;SDS011;8303;53.446;9.988;2022-11-15T18:24:25;22.67;;;15.93;;
16387;SDS011;8303;53.446;9.988;2022-11-15T18:26:53;23.17;;;17.53;;
16387;SDS011;8303;53.446;9.988;2022-11-15T18:29:21;25.87;;;15.80;;
16387;SDS011;8303;53.446;9.988;2022-11-15T18:31:51;22.00;;;15.77;;
16387;SDS011;8303;53.446;9.988;2022-11-15T18:34:20;27.60;;;16.93;;
16387;SDS011;8303;53.446;9.988;2022-11-15T18:36:48;30.80;;;17.77;;
16387;SDS011;8303;53.446;9.988;2022-11-15T18:39:16;26.73;;;16.93;;
16387;SDS011;8303;53.446;9.988;2022-11-15T18:41:44;26.73;;;16.17;;
16387;SDS011;8303;53.446;9.988;2022-11-15T18:44:11;26.20;;;16.03;;
16387;SDS011;8303;53.446;9.988;2022-11-15T18:46:39;23.50;;;15.93;;
16387;SDS011;8303;53.446;9.988;2022-11-15T18:49:09;22.70;;;15.03;;
16387;SDS011;8303;53.446;9.988;2022-11-15T18:51:37;26.27;;;15.83;;
16387;SDS011;8303;53.446;9.988;2022-11-15T18:54:06;25.37;;;16.67;;
16387;SDS011;8303;53.446;9.988;2022-11-15T18:56:34;28.77;;;16.47;;
16387;SDS011;8303;53.446;9.988;2022-11-15T18:59:02;27.10;;;16.23;;
16387;SDS011;8303;53.446;9.988;2022-11-15T19:01:30;25.67;;;16.60;;
16387;SDS011;8303;53.446;9.988;2022-11-15T19:04:01;27.30;;;17.30;;
16387;SDS011;8303;53.446;9.988;2022-11-15T19:06:31;22.10;;;16.00;;
16387;SDS011;8303;53.446;9.988;2022-11-15T19:08:58;29.17;;;18.63;;
16387;SDS011;8303;53.446;9.988;2022-11-15T19:11:26;24.70;;;16.97;;
16387;SDS011;8303;53.446;9.988;2022-11-15T19:13:55;26.07;;;16.67;;
16387;SDS011;8303;53.446;9.988;2022-11-15T19:16:23;24.47;;;16.67;;
16387;SDS011;8303;53.446;9.988;2022-11-15T19:18:51;26.07;;;15.87;;
16387;SDS011;8303;53.446;9.988;2022-11-15T19:21:19;29.73;;;17.47;;
16387;SDS011;8303;53.446;9.988;2022-11-15T19:23:47;24.83;;;16.10;;
16387;SDS011;8303;53.446;9.988;2022-11-15T19:26:15;29.33;;;16.80;;
16387;SDS011;8303;53.446;9.988;2022-11-15T19:28:42;25.53;;;16.50;;
16387;SDS011;8303;53.446;9.988;2022-11-15T19:31:10;28.23;;;17.57;;
16387;SDS011;8303;53.446;9.988;2022-11-15T19:33:39;29.30;;;17.23;;
16387;SDS011;8303;53.446;9.988;2022-11-15T19:36:10;28.10;;;17.13;;
16387;SDS011;8303;53.446;9.988;2022-11-15T19:38:39;28.00;;;17.63;;
16387;SDS011;8303;53.446;9.988;2022-11-15T19:41:09;28.70;;;16.73;;
16387;SDS011;8303;53.446;9.988;2022-11-15T19:43:37;29.37;;;18.43;;
16387;SDS011;8303;53.446;9.988;2022-11-15T19:46:05;29.67;;;17.70;;
16387;SDS011;8303;53.446;9.988;2022-11-15T19:48:34;27.93;;;17.90;;
16387;SDS011;8303;53.446;9.988;2022-11-15T19:51:01;33.70;;;19.10;;
16387;SDS011;8303;53.446;9.988;2022-11-15T19:53:30;30.60;;;18.57;;
16387;SDS011;8303;53.446;9.988;2022-11-15T19:55:58;29.20;;;18.43;;
16387;SDS011;8303;53.446;9.988;2022-11-15T19:58:28;32.87;;;17.77;;
16387;SDS011;8303;53.446;9.988;2022-11-15T20:00:58;30.80;;;19.30;;
16387;SDS011;8303;53.446;9.988;2022-11-15T20:03:26;27.40;;;18.83;;
16387;SDS011;8303;53.446;9.988;2022-11-15T20:05:58;32.27;;;19.33;;
16387;SDS011;8303;53.446;9.988;2022-11-15T20:08:27;32.33;;;19.03;;
16387;SDS011;8303;53.446;9.988;2022-11-15T20:10:54;30.40;;;18.43;;
16387;SDS011;8303;53.446;9.988;2022-11-15T20:13:21;31.67;;;19.07;;
16387;SDS011;8303;53.446;9.988;2022-11-15T20:15:49;32.50;;;18.80;;
16387;SDS011;8303;53.446;9.988;2022-11-15T20:18:16;33.10;;;19.40;;
16387;SDS011;8303;53.446;9.988;2022-11-15T20:20:43;34.53;;;18.63;;
16387;SDS011;8303;53.446;9.988;2022-11-15T20:23:10;29.83;;;17.93;;
16387;SDS011;8303;53.446;9.988;2022-11-15T20:25:38;30.13;;;18.17;;
16387;SDS011;8303;53.446;9.988;2022-11-15T20:28:05;32.77;;;19.10;;
16387;SDS011;8303;53.446;9.988;2022-11-15T20:30:35;29.97;;;19.30;;
16387;SDS011;8303;53.446;9.988;2022-11-15T20:33:03;30.53;;;18.40;;
16387;SDS011;8303;53.446;9.988;2022-11-15T20:35:30;33.50;;;19.30;;
16387;SDS011;8303;53.446;9.988;2022-11-15T20:37:57;36.17;;;19.97;;
16387;SDS011;8303;53.446;9.988;2022-11-15T20:40:24;36.93;;;20.43;;
16387;SDS011;8303;53.446;9.988;2022-11-15T20:42:51;41.83;;;21.00;;
16387;SDS011;8303;53.446;9.988;2022-11-15T20:45:18;33.93;;;19.77;;
16387;SDS011;8303;53.446;9.988;2022-11-15T20:47:45;29.63;;;19.40;;
16387;SDS011;8303;53.446;9.988;2022-11-15T20:50:13;34.60;;;19.40;;
16387;SDS011;8303;53.446;9.988;2022-11-15T20:52:40;35.83;;;20.47;;
16387;SDS011;8303;53.446;9.988;2022-11-15T20:55:07;35.50;;;20.03;;
16387;SDS011;8303;53.446;9.988;2022-11-15T20:57:35;34.97;;;20.90;;
16387;SDS011;8303;53.446;9.988;2022-11-15T21:00:02;35.40;;;19.53;;
16387;SDS011;8303;53.446;9.988;2022-11-15T21:02:29;37.97;;;22.13;;
16387;SDS011;8303;53.446;9.988;2022-11-15T21:04:57;37.00;;;19.53;;
16387;SDS011;8303;53.446;9.988;2022-11-15T21:07:25;32.23;;;19.27;;